sensor_id;sensor_type;location;lat;lon;timestamp;temperature;humidity
21214;DHT22;10764;50.850;2.904;2023-10-08T00:02:46;22.30;56.00
21214;DHT22;10764;50.850;2.904;2023-10-08T00:05:13;22.00;55.30
21214;DHT22;10764;50.850;2.904;2023-10-08T00:07:43;22.10;54.80
21214;DHT22;10764;50.850;2.904;2023-10-08T00:10:10;22.30;55.10
21214;DHT22;10764;50.850;2.904;2023-10-08T00:12:37;22.50;55.30
21214;DHT22;10764;50.850;2.904;2023-10-08T00:15:04;22.20;55.50
21214;DHT22;10764;50.850;2.904;2023-10-08T00:17:33;22.10;54.70
21214;DHT22;10764;50.850;2.904;2023-10-08T00:20:00;21.70;55.00
21214;DHT22;10764;50.850;2.904;2023-10-08T00:22:27;22.50;55.40
21214;DHT22;10764;50.850;2.904;2023-10-08T00:24:57;22.70;55.50
21214;DHT22;10764;50.850;2.904;2023-10-08T00:27:24;22.60;55.60
21214;DHT22;10764;50.850;2.904;2023-10-08T00:29:51;22.50;55.60
21214;DHT22;10764;50.850;2.904;2023-10-08T00:32:18;22.30;55.30
21214;DHT22;10764;50.850;2.904;2023-10-08T00:34:46;22.30;55.40
21214;DHT22;10764;50.850;2.904;2023-10-08T00:37:13;22.70;55.50
21214;DHT22;10764;50.850;2.904;2023-10-08T00:39:44;22.60;54.10
21214;DHT22;10764;50.850;2.904;2023-10-08T00:42:12;22.20;55.30
21214;DHT22;10764;50.850;2.904;2023-10-08T00:44:39;22.40;55.70
21214;DHT22;10764;50.850;2.904;2023-10-08T00:47:18;22.70;54.50
21214;DHT22;10764;50.850;2.904;2023-10-08T00:49:48;22.40;55.60
21214;DHT22;10764;50.850;2.904;2023-10-08T00:52:21;22.70;55.70
21214;DHT22;10764;50.850;2.904;2023-10-08T00:55:06;22.30;55.50
21214;DHT22;10764;50.850;2.904;2023-10-08T00:57:36;22.20;55.60
21214;DHT22;10764;50.850;2.904;2023-10-08T01:00:06;22.10;55.70
21214;DHT22;10764;50.850;2.904;2023-10-08T01:02:42;22.10;54.80
21214;DHT22;10764;50.850;2.904;2023-10-08T01:05:27;22.50;54.80
21214;DHT22;10764;50.850;2.904;2023-10-08T01:08:15;22.60;54.70
21214;DHT22;10764;50.850;2.904;2023-10-08T01:11:21;22.80;55.40
21214;DHT22;10764;50.850;2.904;2023-10-08T01:13:58;22.50;55.90
21214;DHT22;10764;50.850;2.904;2023-10-08T01:16:25;22.30;55.80
21214;DHT22;10764;50.850;2.904;2023-10-08T01:19:00;22.70;54.80
21214;DHT22;10764;50.850;2.904;2023-10-08T01:21:30;22.30;55.80
21214;DHT22;10764;50.850;2.904;2023-10-08T01:24:06;22.50;54.90
21214;DHT22;10764;50.850;2.904;2023-10-08T01:26:34;22.70;55.90
21214;DHT22;10764;50.850;2.904;2023-10-08T01:29:09;22.90;56.10
21214;DHT22;10764;50.850;2.904;2023-10-08T01:31:38;22.70;56.40
21214;DHT22;10764;50.850;2.904;2023-10-08T01:34:05;22.60;56.00
21214;DHT22;10764;50.850;2.904;2023-10-08T01:36:34;22.70;56.20
21214;DHT22;10764;50.850;2.904;2023-10-08T01:39:02;22.90;56.30
21214;DHT22;10764;50.850;2.904;2023-10-08T01:41:29;22.40;55.80
21214;DHT22;10764;50.850;2.904;2023-10-08T01:43:57;22.80;56.10
21214;DHT22;10764;50.850;2.904;2023-10-08T01:46:25;22.50;56.20
21214;DHT22;10764;50.850;2.904;2023-10-08T01:48:52;22.60;56.00
21214;DHT22;10764;50.850;2.904;2023-10-08T01:51:35;22.50;55.00
21214;DHT22;10764;50.850;2.904;2023-10-08T01:54:06;22.80;55.90
21214;DHT22;10764;50.850;2.904;2023-10-08T01:56:40;22.80;56.00
21214;DHT22;10764;50.850;2.904;2023-10-08T01:59:10;22.50;55.90
21214;DHT22;10764;50.850;2.904;2023-10-08T02:01:38;22.70;55.90
21214;DHT22;10764;50.850;2.904;2023-10-08T02:04:06;22.70;56.20
21214;DHT22;10764;50.850;2.904;2023-10-08T02:06:34;22.30;56.00
21214;DHT22;10764;50.850;2.904;2023-10-08T02:09:02;22.40;55.80
21214;DHT22;10764;50.850;2.904;2023-10-08T02:11:48;22.50;54.90
21214;DHT22;10764;50.850;2.904;2023-10-08T02:14:18;23.10;56.60
21214;DHT22;10764;50.850;2.904;2023-10-08T02:16:45;23.00;56.30
21214;DHT22;10764;50.850;2.904;2023-10-08T02:19:13;22.90;56.40
21214;DHT22;10764;50.850;2.904;2023-10-08T02:21:41;22.40;56.20
21214;DHT22;10764;50.850;2.904;2023-10-08T02:24:08;22.90;56.50
21214;DHT22;10764;50.850;2.904;2023-10-08T02:26:37;22.90;56.60
21214;DHT22;10764;50.850;2.904;2023-10-08T02:29:07;22.60;56.40
21214;DHT22;10764;50.850;2.904;2023-10-08T02:31:42;22.70;56.50
21214;DHT22;10764;50.850;2.904;2023-10-08T02:34:10;23.10;56.40
21214;DHT22;10764;50.850;2.904;2023-10-08T02:36:39;22.60;56.40
21214;DHT22;10764;50.850;2.904;2023-10-08T02:39:10;23.10;56.30
21214;DHT22;10764;50.850;2.904;2023-10-08T02:41:49;22.40;55.20
21214;DHT22;10764;50.850;2.904;2023-10-08T02:44:17;22.60;57.10
21214;DHT22;10764;50.850;2.904;2023-10-08T02:46:45;23.00;56.80
21214;DHT22;10764;50.850;2.904;2023-10-08T02:49:15;22.40;56.40
21214;DHT22;10764;50.850;2.904;2023-10-08T02:51:54;22.60;56.60
21214;DHT22;10764;50.850;2.904;2023-10-08T02:54:22;22.80;56.80
21214;DHT22;10764;50.850;2.904;2023-10-08T02:56:59;22.50;56.60
21214;DHT22;10764;50.850;2.904;2023-10-08T02:59:31;22.70;56.50
21214;DHT22;10764;50.850;2.904;2023-10-08T03:02:13;22.70;56.50
21214;DHT22;10764;50.850;2.904;2023-10-08T03:04:46;22.80;56.80
21214;DHT22;10764;50.850;2.904;2023-10-08T03:07:14;22.20;56.40
21214;DHT22;10764;50.850;2.904;2023-10-08T03:09:59;22.40;56.70
21214;DHT22;10764;50.850;2.904;2023-10-08T03:12:46;22.40;56.10
21214;DHT22;10764;50.850;2.904;2023-10-08T03:15:14;22.50;57.00
21214;DHT22;10764;50.850;2.904;2023-10-08T03:17:56;22.80;57.00
21214;DHT22;10764;50.850;2.904;2023-10-08T03:20:24;22.60;56.70
21214;DHT22;10764;50.850;2.904;2023-10-08T03:23:12;22.70;55.90
21214;DHT22;10764;50.850;2.904;2023-10-08T03:25:55;22.60;57.00
21214;DHT22;10764;50.850;2.904;2023-10-08T03:28:38;22.40;57.10
21214;DHT22;10764;50.850;2.904;2023-10-08T03:31:07;23.10;57.30
21214;DHT22;10764;50.850;2.904;2023-10-08T03:33:46;22.80;55.90
21214;DHT22;10764;50.850;2.904;2023-10-08T03:36:18;23.00;57.30
21214;DHT22;10764;50.850;2.904;2023-10-08T03:38:48;22.90;55.90
21214;DHT22;10764;50.850;2.904;2023-10-08T03:41:25;22.40;56.40
21214;DHT22;10764;50.850;2.904;2023-10-08T03:43:57;22.80;56.10
21214;DHT22;10764;50.850;2.904;2023-10-08T03:46:40;22.40;55.90
21214;DHT22;10764;50.850;2.904;2023-10-08T03:49:10;22.80;57.30
21214;DHT22;10764;50.850;2.904;2023-10-08T03:51:49;23.00;56.80
21214;DHT22;10764;50.850;2.904;2023-10-08T03:54:20;22.70;56.40
21214;DHT22;10764;50.850;2.904;2023-10-08T03:56:56;23.20;57.30
21214;DHT22;10764;50.850;2.904;2023-10-08T03:59:24;23.10;57.40
21214;DHT22;10764;50.850;2.904;2023-10-08T04:02:02;22.80;56.10
21214;DHT22;10764;50.850;2.904;2023-10-08T04:04:49;22.40;56.90
21214;DHT22;10764;50.850;2.904;2023-10-08T04:07:19;22.90;57.40
21214;DHT22;10764;50.850;2.904;2023-10-08T04:10:05;22.60;56.90
21214;DHT22;10764;50.850;2.904;2023-10-08T04:12:52;22.40;56.80
21214;DHT22;10764;50.850;2.904;2023-10-08T04:15:20;22.90;57.20
21214;DHT22;10764;50.850;2.904;2023-10-08T04:17:47;23.00;57.40
21214;DHT22;10764;50.850;2.904;2023-10-08T04:20:18;22.40;57.00
21214;DHT22;10764;50.850;2.904;2023-10-08T04:23:07;22.40;56.20
21214;DHT22;10764;50.850;2.904;2023-10-08T04:25:45;22.70;57.30
21214;DHT22;10764;50.850;2.904;2023-10-08T04:28:13;22.80;57.50
21214;DHT22;10764;50.850;2.904;2023-10-08T04:30:44;22.30;57.30
21214;DHT22;10764;50.850;2.904;2023-10-08T04:33:11;22.70;57.40
21214;DHT22;10764;50.850;2.904;2023-10-08T04:35:43;22.90;56.40
21214;DHT22;10764;50.850;2.904;2023-10-08T04:38:24;22.70;57.70
21214;DHT22;10764;50.850;2.904;2023-10-08T04:40:56;23.00;57.70
21214;DHT22;10764;50.850;2.904;2023-10-08T04:43:28;22.50;57.50
21214;DHT22;10764;50.850;2.904;2023-10-08T04:45:58;23.00;57.90
21214;DHT22;10764;50.850;2.904;2023-10-08T04:48:26;22.60;57.60
21214;DHT22;10764;50.850;2.904;2023-10-08T04:50:56;22.80;57.80
21214;DHT22;10764;50.850;2.904;2023-10-08T04:53:26;22.80;56.60
21214;DHT22;10764;50.850;2.904;2023-10-08T04:56:06;22.80;57.50
21214;DHT22;10764;50.850;2.904;2023-10-08T04:58:40;22.60;57.50
21214;DHT22;10764;50.850;2.904;2023-10-08T05:01:08;22.50;57.20
21214;DHT22;10764;50.850;2.904;2023-10-08T05:03:54;23.00;56.70
21214;DHT22;10764;50.850;2.904;2023-10-08T05:06:26;22.90;57.60
21214;DHT22;10764;50.850;2.904;2023-10-08T05:09:06;22.60;57.40
21214;DHT22;10764;50.850;2.904;2023-10-08T05:11:56;22.90;56.30
21214;DHT22;10764;50.850;2.904;2023-10-08T05:14:37;22.10;57.50
21214;DHT22;10764;50.850;2.904;2023-10-08T05:17:22;22.40;57.70
21214;DHT22;10764;50.850;2.904;2023-10-08T05:19:49;22.90;57.90
21214;DHT22;10764;50.850;2.904;2023-10-08T05:22:43;22.50;56.50
21214;DHT22;10764;50.850;2.904;2023-10-08T05:25:22;22.50;56.50
21214;DHT22;10764;50.850;2.904;2023-10-08T05:28:01;23.00;56.90
21214;DHT22;10764;50.850;2.904;2023-10-08T05:30:36;22.90;57.80
21214;DHT22;10764;50.850;2.904;2023-10-08T05:33:05;22.50;57.90
21214;DHT22;10764;50.850;2.904;2023-10-08T05:35:46;22.60;57.60
21214;DHT22;10764;50.850;2.904;2023-10-08T05:38:15;22.80;57.80
21214;DHT22;10764;50.850;2.904;2023-10-08T05:40:58;23.10;57.90
21214;DHT22;10764;50.850;2.904;2023-10-08T05:43:34;23.00;57.80
21214;DHT22;10764;50.850;2.904;2023-10-08T05:46:14;22.30;57.30
21214;DHT22;10764;50.850;2.904;2023-10-08T05:48:52;22.90;56.50
21214;DHT22;10764;50.850;2.904;2023-10-08T05:51:40;23.20;56.50
21214;DHT22;10764;50.850;2.904;2023-10-08T05:54:18;22.90;57.70
21214;DHT22;10764;50.850;2.904;2023-10-08T05:57:07;22.30;57.50
21214;DHT22;10764;50.850;2.904;2023-10-08T05:59:45;22.70;56.30
21214;DHT22;10764;50.850;2.904;2023-10-08T06:02:26;23.00;58.10
21214;DHT22;10764;50.850;2.904;2023-10-08T06:05:14;22.50;57.60
21214;DHT22;10764;50.850;2.904;2023-10-08T06:07:52;23.10;56.90
21214;DHT22;10764;50.850;2.904;2023-10-08T06:10:28;22.80;58.60
21214;DHT22;10764;50.850;2.904;2023-10-08T06:13:07;23.20;58.00
21214;DHT22;10764;50.850;2.904;2023-10-08T06:15:41;22.90;56.60
21214;DHT22;10764;50.850;2.904;2023-10-08T06:18:15;22.90;57.90
21214;DHT22;10764;50.850;2.904;2023-10-08T06:20:45;22.70;57.60
21214;DHT22;10764;50.850;2.904;2023-10-08T06:23:14;22.30;57.60
21214;DHT22;10764;50.850;2.904;2023-10-08T06:25:47;22.70;57.50
21214;DHT22;10764;50.850;2.904;2023-10-08T06:28:20;22.60;57.80
21214;DHT22;10764;50.850;2.904;2023-10-08T06:30:49;22.90;58.00
21214;DHT22;10764;50.850;2.904;2023-10-08T06:33:16;22.70;57.70
21214;DHT22;10764;50.850;2.904;2023-10-08T06:35:44;22.90;58.10
21214;DHT22;10764;50.850;2.904;2023-10-08T06:38:29;22.60;56.90
21214;DHT22;10764;50.850;2.904;2023-10-08T06:40:59;23.00;57.30
21214;DHT22;10764;50.850;2.904;2023-10-08T06:43:28;22.60;57.50
21214;DHT22;10764;50.850;2.904;2023-10-08T06:45:55;22.50;57.80
21214;DHT22;10764;50.850;2.904;2023-10-08T06:48:25;22.30;57.50
21214;DHT22;10764;50.850;2.904;2023-10-08T06:50:53;22.90;58.70
21214;DHT22;10764;50.850;2.904;2023-10-08T06:53:34;22.70;57.10
21214;DHT22;10764;50.850;2.904;2023-10-08T06:56:01;22.30;58.00
21214;DHT22;10764;50.850;2.904;2023-10-08T06:58:32;22.40;57.90
21214;DHT22;10764;50.850;2.904;2023-10-08T07:00:59;22.60;57.80
21214;DHT22;10764;50.850;2.904;2023-10-08T07:03:32;22.20;57.60
21214;DHT22;10764;50.850;2.904;2023-10-08T07:06:01;22.20;58.40
21214;DHT22;10764;50.850;2.904;2023-10-08T07:08:32;22.30;60.30
21214;DHT22;10764;50.850;2.904;2023-10-08T07:11:02;22.70;60.30
21214;DHT22;10764;50.850;2.904;2023-10-08T07:13:35;22.40;59.70
21214;DHT22;10764;50.850;2.904;2023-10-08T07:16:04;22.70;60.10
21214;DHT22;10764;50.850;2.904;2023-10-08T07:18:38;22.70;60.60
21214;DHT22;10764;50.850;2.904;2023-10-08T07:21:05;22.30;60.50
21214;DHT22;10764;50.850;2.904;2023-10-08T07:23:39;22.50;59.50
21214;DHT22;10764;50.850;2.904;2023-10-08T07:26:39;22.60;60.50
21214;DHT22;10764;50.850;2.904;2023-10-08T07:29:07;22.50;62.40
21214;DHT22;10764;50.850;2.904;2023-10-08T07:31:39;22.70;62.80
21214;DHT22;10764;50.850;2.904;2023-10-08T07:34:09;22.70;63.30
21214;DHT22;10764;50.850;2.904;2023-10-08T07:36:43;22.50;61.40
21214;DHT22;10764;50.850;2.904;2023-10-08T07:39:10;22.70;62.10
21214;DHT22;10764;50.850;2.904;2023-10-08T07:41:59;22.20;61.90
21214;DHT22;10764;50.850;2.904;2023-10-08T07:44:27;22.90;61.60
21214;DHT22;10764;50.850;2.904;2023-10-08T07:47:03;22.30;59.90
21214;DHT22;10764;50.850;2.904;2023-10-08T07:49:32;22.60;61.20
21214;DHT22;10764;50.850;2.904;2023-10-08T07:51:59;22.90;61.50
21214;DHT22;10764;50.850;2.904;2023-10-08T07:54:27;22.60;61.80
21214;DHT22;10764;50.850;2.904;2023-10-08T07:57:02;22.80;61.60
21214;DHT22;10764;50.850;2.904;2023-10-08T07:59:46;22.30;61.20
21214;DHT22;10764;50.850;2.904;2023-10-08T08:02:15;22.40;61.40
21214;DHT22;10764;50.850;2.904;2023-10-08T08:04:45;22.30;61.30
21214;DHT22;10764;50.850;2.904;2023-10-08T08:07:13;22.60;61.60
21214;DHT22;10764;50.850;2.904;2023-10-08T08:09:44;22.60;61.70
21214;DHT22;10764;50.850;2.904;2023-10-08T08:12:18;22.20;61.60
21214;DHT22;10764;50.850;2.904;2023-10-08T08:14:46;22.70;61.50
21214;DHT22;10764;50.850;2.904;2023-10-08T08:17:15;22.70;62.00
21214;DHT22;10764;50.850;2.904;2023-10-08T08:19:43;22.30;61.60
21214;DHT22;10764;50.850;2.904;2023-10-08T08:22:14;22.50;61.40
21214;DHT22;10764;50.850;2.904;2023-10-08T08:24:51;22.30;61.40
21214;DHT22;10764;50.850;2.904;2023-10-08T08:27:28;22.60;60.00
21214;DHT22;10764;50.850;2.904;2023-10-08T08:30:00;22.20;60.10
21214;DHT22;10764;50.850;2.904;2023-10-08T08:32:37;22.70;61.50
21214;DHT22;10764;50.850;2.904;2023-10-08T08:35:10;22.20;61.40
21214;DHT22;10764;50.850;2.904;2023-10-08T08:37:38;22.80;61.50
21214;DHT22;10764;50.850;2.904;2023-10-08T08:40:10;22.80;63.50
21214;DHT22;10764;50.850;2.904;2023-10-08T08:42:48;22.50;59.80
21214;DHT22;10764;50.850;2.904;2023-10-08T08:45:22;22.10;61.40
21214;DHT22;10764;50.850;2.904;2023-10-08T08:47:51;22.40;61.50
21214;DHT22;10764;50.850;2.904;2023-10-08T08:50:19;22.30;61.80
21214;DHT22;10764;50.850;2.904;2023-10-08T08:52:48;22.00;60.80
21214;DHT22;10764;50.850;2.904;2023-10-08T08:55:15;22.90;61.70
21214;DHT22;10764;50.850;2.904;2023-10-08T08:57:46;22.30;61.40
21214;DHT22;10764;50.850;2.904;2023-10-08T09:00:15;22.10;61.00
21214;DHT22;10764;50.850;2.904;2023-10-08T09:02:44;22.40;61.10
21214;DHT22;10764;50.850;2.904;2023-10-08T09:05:15;22.70;61.40
21214;DHT22;10764;50.850;2.904;2023-10-08T09:08:04;22.50;61.00
21214;DHT22;10764;50.850;2.904;2023-10-08T09:10:34;22.40;61.00
21214;DHT22;10764;50.850;2.904;2023-10-08T09:13:05;22.90;61.80
21214;DHT22;10764;50.850;2.904;2023-10-08T09:15:35;22.60;62.40
21214;DHT22;10764;50.850;2.904;2023-10-08T09:18:03;22.40;62.30
21214;DHT22;10764;50.850;2.904;2023-10-08T09:20:36;22.80;62.30
21214;DHT22;10764;50.850;2.904;2023-10-08T09:23:16;22.40;62.30
21214;DHT22;10764;50.850;2.904;2023-10-08T09:25:45;22.70;62.70
21214;DHT22;10764;50.850;2.904;2023-10-08T09:28:15;22.50;62.30
21214;DHT22;10764;50.850;2.904;2023-10-08T09:30:43;22.70;62.20
21214;DHT22;10764;50.850;2.904;2023-10-08T09:33:13;22.50;62.10
21214;DHT22;10764;50.850;2.904;2023-10-08T09:35:42;22.50;62.00
21214;DHT22;10764;50.850;2.904;2023-10-08T09:38:10;22.60;62.60
21214;DHT22;10764;50.850;2.904;2023-10-08T09:40:41;22.80;62.50
21214;DHT22;10764;50.850;2.904;2023-10-08T09:43:11;22.70;63.10
21214;DHT22;10764;50.850;2.904;2023-10-08T09:45:43;22.30;62.10
21214;DHT22;10764;50.850;2.904;2023-10-08T09:48:16;22.70;62.20
21214;DHT22;10764;50.850;2.904;2023-10-08T09:50:47;22.40;62.50
21214;DHT22;10764;50.850;2.904;2023-10-08T09:53:14;22.40;62.40
21214;DHT22;10764;50.850;2.904;2023-10-08T09:55:54;22.50;61.70
21214;DHT22;10764;50.850;2.904;2023-10-08T09:58:26;22.30;62.60
21214;DHT22;10764;50.850;2.904;2023-10-08T10:00:56;22.80;62.60
21214;DHT22;10764;50.850;2.904;2023-10-08T10:03:26;22.60;62.50
21214;DHT22;10764;50.850;2.904;2023-10-08T10:05:54;22.30;62.40
21214;DHT22;10764;50.850;2.904;2023-10-08T10:08:25;22.30;62.50
21214;DHT22;10764;50.850;2.904;2023-10-08T10:10:59;22.60;62.70
21214;DHT22;10764;50.850;2.904;2023-10-08T10:13:41;22.70;62.80
21214;DHT22;10764;50.850;2.904;2023-10-08T10:16:10;22.80;60.90
21214;DHT22;10764;50.850;2.904;2023-10-08T10:18:37;22.40;62.40
21214;DHT22;10764;50.850;2.904;2023-10-08T10:26:30;23.00;60.80
21214;DHT22;10764;50.850;2.904;2023-10-08T10:31:54;22.80;61.10
21214;DHT22;10764;50.850;2.904;2023-10-08T10:34:23;22.50;62.30
21214;DHT22;10764;50.850;2.904;2023-10-08T10:36:56;22.70;62.50
21214;DHT22;10764;50.850;2.904;2023-10-08T10:39:26;22.50;62.00
21214;DHT22;10764;50.850;2.904;2023-10-08T10:41:56;22.90;62.40
21214;DHT22;10764;50.850;2.904;2023-10-08T10:44:34;22.80;62.10
21214;DHT22;10764;50.850;2.904;2023-10-08T10:47:05;22.40;62.10
21214;DHT22;10764;50.850;2.904;2023-10-08T10:49:49;22.30;61.00
21214;DHT22;10764;50.850;2.904;2023-10-08T10:52:24;22.50;60.30
21214;DHT22;10764;50.850;2.904;2023-10-08T10:55:13;22.50;62.20
21214;DHT22;10764;50.850;2.904;2023-10-08T10:57:43;22.10;61.60
21214;DHT22;10764;50.850;2.904;2023-10-08T11:00:11;22.50;62.70
21214;DHT22;10764;50.850;2.904;2023-10-08T11:02:57;22.70;61.40
21214;DHT22;10764;50.850;2.904;2023-10-08T11:05:33;22.70;62.50
21214;DHT22;10764;50.850;2.904;2023-10-08T11:08:06;22.90;62.10
21214;DHT22;10764;50.850;2.904;2023-10-08T11:10:38;22.90;61.70
21214;DHT22;10764;50.850;2.904;2023-10-08T11:13:06;23.80;62.30
21214;DHT22;10764;50.850;2.904;2023-10-08T11:15:43;22.60;61.80
21214;DHT22;10764;50.850;2.904;2023-10-08T11:18:11;22.80;61.20
21214;DHT22;10764;50.850;2.904;2023-10-08T11:20:43;22.50;61.60
21214;DHT22;10764;50.850;2.904;2023-10-08T11:23:37;23.20;61.80
21214;DHT22;10764;50.850;2.904;2023-10-08T11:26:08;22.50;60.00
21214;DHT22;10764;50.850;2.904;2023-10-08T11:28:38;23.40;62.10
21214;DHT22;10764;50.850;2.904;2023-10-08T11:31:13;23.30;61.90
21214;DHT22;10764;50.850;2.904;2023-10-08T11:33:42;23.30;62.10
21214;DHT22;10764;50.850;2.904;2023-10-08T11:36:10;22.60;61.70
21214;DHT22;10764;50.850;2.904;2023-10-08T11:38:56;24.00;61.80
21214;DHT22;10764;50.850;2.904;2023-10-08T11:41:32;22.90;62.30
21214;DHT22;10764;50.850;2.904;2023-10-08T11:44:16;23.10;63.40
21214;DHT22;10764;50.850;2.904;2023-10-08T11:46:46;23.20;60.80
21214;DHT22;10764;50.850;2.904;2023-10-08T11:49:19;23.20;63.00
21214;DHT22;10764;50.850;2.904;2023-10-08T11:51:46;22.90;62.10
21214;DHT22;10764;50.850;2.904;2023-10-08T11:54:13;22.70;61.30
21214;DHT22;10764;50.850;2.904;2023-10-08T11:56:42;22.40;62.00
21214;DHT22;10764;50.850;2.904;2023-10-08T11:59:09;23.10;62.40
21214;DHT22;10764;50.850;2.904;2023-10-08T12:01:36;22.60;63.00
21214;DHT22;10764;50.850;2.904;2023-10-08T12:04:05;22.90;61.20
21214;DHT22;10764;50.850;2.904;2023-10-08T12:06:40;23.20;60.60
21214;DHT22;10764;50.850;2.904;2023-10-08T12:09:14;22.80;60.90
21214;DHT22;10764;50.850;2.904;2023-10-08T12:11:41;23.00;60.90
21214;DHT22;10764;50.850;2.904;2023-10-08T12:14:09;22.90;61.10
21214;DHT22;10764;50.850;2.904;2023-10-08T12:16:37;22.90;61.10
21214;DHT22;10764;50.850;2.904;2023-10-08T12:19:06;22.40;61.20
21214;DHT22;10764;50.850;2.904;2023-10-08T12:21:44;23.00;61.50
21214;DHT22;10764;50.850;2.904;2023-10-08T12:24:14;22.90;61.90
21214;DHT22;10764;50.850;2.904;2023-10-08T12:26:42;23.10;62.50
21214;DHT22;10764;50.850;2.904;2023-10-08T12:29:13;23.30;64.50
21214;DHT22;10764;50.850;2.904;2023-10-08T12:31:45;22.60;63.10
21214;DHT22;10764;50.850;2.904;2023-10-08T12:34:15;22.80;64.50
21214;DHT22;10764;50.850;2.904;2023-10-08T12:36:43;22.50;66.80
21214;DHT22;10764;50.850;2.904;2023-10-08T12:39:12;23.20;68.10
21214;DHT22;10764;50.850;2.904;2023-10-08T12:41:43;22.70;63.60
21214;DHT22;10764;50.850;2.904;2023-10-08T12:44:11;22.60;64.20
21214;DHT22;10764;50.850;2.904;2023-10-08T12:46:39;23.00;63.50
21214;DHT22;10764;50.850;2.904;2023-10-08T12:49:10;22.90;63.10
21214;DHT22;10764;50.850;2.904;2023-10-08T12:51:37;22.90;63.30
21214;DHT22;10764;50.850;2.904;2023-10-08T12:54:08;22.70;62.90
21214;DHT22;10764;50.850;2.904;2023-10-08T12:56:38;23.00;62.90
21214;DHT22;10764;50.850;2.904;2023-10-08T12:59:12;22.60;62.70
21214;DHT22;10764;50.850;2.904;2023-10-08T13:01:49;23.20;61.80
21214;DHT22;10764;50.850;2.904;2023-10-08T13:04:22;22.90;62.80
21214;DHT22;10764;50.850;2.904;2023-10-08T13:06:56;22.70;62.70
21214;DHT22;10764;50.850;2.904;2023-10-08T13:09:30;22.70;62.90
21214;DHT22;10764;50.850;2.904;2023-10-08T13:12:04;23.00;63.10
21214;DHT22;10764;50.850;2.904;2023-10-08T13:14:31;22.80;62.60
21214;DHT22;10764;50.850;2.904;2023-10-08T13:17:02;22.90;64.30
21214;DHT22;10764;50.850;2.904;2023-10-08T13:19:30;22.80;63.30
21214;DHT22;10764;50.850;2.904;2023-10-08T13:22:01;22.90;63.00
21214;DHT22;10764;50.850;2.904;2023-10-08T13:24:28;22.50;63.00
21214;DHT22;10764;50.850;2.904;2023-10-08T13:26:56;22.90;62.90
21214;DHT22;10764;50.850;2.904;2023-10-08T13:29:25;22.50;62.40
21214;DHT22;10764;50.850;2.904;2023-10-08T13:32:00;22.70;61.40
21214;DHT22;10764;50.850;2.904;2023-10-08T13:34:27;22.60;62.70
21214;DHT22;10764;50.850;2.904;2023-10-08T13:36:54;22.50;63.00
21214;DHT22;10764;50.850;2.904;2023-10-08T13:39:23;22.40;62.30
21214;DHT22;10764;50.850;2.904;2023-10-08T13:41:50;22.30;63.60
21214;DHT22;10764;50.850;2.904;2023-10-08T13:44:19;22.70;62.90
21214;DHT22;10764;50.850;2.904;2023-10-08T13:46:57;22.40;63.20
21214;DHT22;10764;50.850;2.904;2023-10-08T13:49:26;22.60;62.10
21214;DHT22;10764;50.850;2.904;2023-10-08T13:51:53;23.30;65.20
21214;DHT22;10764;50.850;2.904;2023-10-08T13:54:24;22.80;61.20
21214;DHT22;10764;50.850;2.904;2023-10-08T13:56:57;23.10;61.80
21214;DHT22;10764;50.850;2.904;2023-10-08T13:59:28;23.10;62.40
21214;DHT22;10764;50.850;2.904;2023-10-08T14:01:59;22.40;64.60
21214;DHT22;10764;50.850;2.904;2023-10-08T14:04:29;22.50;62.40
21214;DHT22;10764;50.850;2.904;2023-10-08T14:07:05;23.50;61.40
21214;DHT22;10764;50.850;2.904;2023-10-08T14:09:32;22.70;63.00
21214;DHT22;10764;50.850;2.904;2023-10-08T14:12:07;23.10;62.50
21214;DHT22;10764;50.850;2.904;2023-10-08T14:14:35;22.80;61.90
21214;DHT22;10764;50.850;2.904;2023-10-08T14:17:02;23.00;61.80
21214;DHT22;10764;50.850;2.904;2023-10-08T14:19:36;22.90;61.40
21214;DHT22;10764;50.850;2.904;2023-10-08T14:22:13;22.60;61.60
21214;DHT22;10764;50.850;2.904;2023-10-08T14:24:42;22.60;62.60
21214;DHT22;10764;50.850;2.904;2023-10-08T14:27:12;22.70;62.10
21214;DHT22;10764;50.850;2.904;2023-10-08T14:29:42;22.50;62.00
21214;DHT22;10764;50.850;2.904;2023-10-08T14:32:17;22.50;60.60
21214;DHT22;10764;50.850;2.904;2023-10-08T14:34:44;22.50;61.90
21214;DHT22;10764;50.850;2.904;2023-10-08T14:37:15;22.50;60.40
21214;DHT22;10764;50.850;2.904;2023-10-08T14:40:01;22.40;61.70
21214;DHT22;10764;50.850;2.904;2023-10-08T14:42:47;22.90;62.90
21214;DHT22;10764;50.850;2.904;2023-10-08T14:45:32;22.90;60.80
21214;DHT22;10764;50.850;2.904;2023-10-08T14:48:04;22.60;62.00
21214;DHT22;10764;50.850;2.904;2023-10-08T14:50:39;22.60;61.20
21214;DHT22;10764;50.850;2.904;2023-10-08T14:53:06;22.70;62.20
21214;DHT22;10764;50.850;2.904;2023-10-08T14:55:33;23.00;62.40
21214;DHT22;10764;50.850;2.904;2023-10-08T14:58:05;23.30;62.70
21214;DHT22;10764;50.850;2.904;2023-10-08T15:00:37;22.40;61.80
21214;DHT22;10764;50.850;2.904;2023-10-08T15:03:05;22.40;62.70
21214;DHT22;10764;50.850;2.904;2023-10-08T15:05:33;22.80;62.40
21214;DHT22;10764;50.850;2.904;2023-10-08T15:08:04;22.30;62.80
21214;DHT22;10764;50.850;2.904;2023-10-08T15:10:36;23.10;62.10
21214;DHT22;10764;50.850;2.904;2023-10-08T15:13:04;22.90;62.50
21214;DHT22;10764;50.850;2.904;2023-10-08T15:15:31;22.50;62.20
21214;DHT22;10764;50.850;2.904;2023-10-08T15:18:01;22.50;62.40
21214;DHT22;10764;50.850;2.904;2023-10-08T15:20:29;22.50;62.10
21214;DHT22;10764;50.850;2.904;2023-10-08T15:22:59;22.20;62.00
21214;DHT22;10764;50.850;2.904;2023-10-08T15:25:26;22.90;62.70
21214;DHT22;10764;50.850;2.904;2023-10-08T15:27:54;22.90;62.30
21214;DHT22;10764;50.850;2.904;2023-10-08T15:30:21;22.60;60.30
21214;DHT22;10764;50.850;2.904;2023-10-08T15:32:49;22.40;62.30
21214;DHT22;10764;50.850;2.904;2023-10-08T15:35:18;22.50;63.20
21214;DHT22;10764;50.850;2.904;2023-10-08T15:37:52;23.00;62.90
21214;DHT22;10764;50.850;2.904;2023-10-08T15:40:18;22.70;62.60
21214;DHT22;10764;50.850;2.904;2023-10-08T15:42:51;22.90;62.40
21214;DHT22;10764;50.850;2.904;2023-10-08T15:45:24;23.00;62.20
21214;DHT22;10764;50.850;2.904;2023-10-08T15:47:52;22.90;62.30
21214;DHT22;10764;50.850;2.904;2023-10-08T15:50:20;22.70;62.20
21214;DHT22;10764;50.850;2.904;2023-10-08T15:52:49;22.90;62.10
21214;DHT22;10764;50.850;2.904;2023-10-08T15:55:17;22.20;62.20
21214;DHT22;10764;50.850;2.904;2023-10-08T15:57:46;23.10;62.80
21214;DHT22;10764;50.850;2.904;2023-10-08T16:00:19;22.80;63.70
21214;DHT22;10764;50.850;2.904;2023-10-08T16:02:46;23.00;62.00
21214;DHT22;10764;50.850;2.904;2023-10-08T16:05:17;23.00;61.80
21214;DHT22;10764;50.850;2.904;2023-10-08T16:07:45;22.60;62.10
21214;DHT22;10764;50.850;2.904;2023-10-08T16:10:12;22.70;61.90
21214;DHT22;10764;50.850;2.904;2023-10-08T16:12:43;23.10;62.40